Time;durP1;ratioP1;P1;durP2;ratioP2;P2;SDS_P1;SDS_P2;PMS_P1;PMS_P2;Temp;Humidity;BMP_temperature;BMP_pressure;BME280_temperature;BME280_humidity;BME280_pressure;Samples;Min_cycle;Max_cycle;Signal;HPM_P1;HPM_P2
2021/12/30 00:02:19;;;;;;;49.97;8.20;;;8.60;99.90;;;;;;4994782;28;20558;-70
2021/12/30 00:04:46;;;;;;;51.00;8.60;;;8.60;99.90;;;;;;4994338;28;20081;-70
2021/12/30 00:07:12;;;;;;;49.97;8.23;;;8.60;99.90;;;;;;4978292;28;20070;-69
2021/12/30 00:09:38;;;;;;;44.05;8.68;;;8.50;99.90;;;;;;4994538;28;20419;-70
2021/12/30 00:12:05;;;;;;;37.70;8.68;;;8.50;99.90;;;;;;4994260;28;20053;-70
2021/12/30 00:14:31;;;;;;;47.25;8.80;;;8.50;99.90;;;;;;4994236;28;20042;-70
2021/12/30 00:16:57;;;;;;;40.15;7.82;;;8.50;99.90;;;;;;4994534;28;20037;-70
2021/12/30 00:19:23;;;;;;;50.38;9.77;;;8.60;99.90;;;;;;4994106;28;20054;-70
2021/12/30 00:21:49;;;;;;;38.45;7.28;;;8.50;99.90;;;;;;4991963;28;20523;-70
2021/12/30 00:24:16;;;;;;;41.22;8.10;;;8.50;99.90;;;;;;4994348;28;20038;-70
2021/12/30 00:26:41;;;;;;;39.83;7.53;;;8.50;99.90;;;;;;4994289;28;20042;-70
2021/12/30 00:29:08;;;;;;;43.75;8.82;;;8.50;99.90;;;;;;4978104;28;20589;-70
2021/12/30 00:31:34;;;;;;;37.92;8.40;;;8.50;99.90;;;;;;4994045;28;20050;-70
2021/12/30 00:34:00;;;;;;;35.45;7.63;;;8.40;99.90;;;;;;4994105;28;20041;-70
2021/12/30 00:36:26;;;;;;;41.58;6.38;;;8.40;99.90;;;;;;4977873;28;20042;-70
2021/12/30 00:38:52;;;;;;;37.42;7.70;;;8.30;99.90;;;;;;4993883;28;20041;-70
2021/12/30 00:41:19;;;;;;;38.85;7.13;;;8.30;99.90;;;;;;4993962;28;20042;-70
2021/12/30 00:43:45;;;;;;;38.60;7.05;;;8.30;99.90;;;;;;5010577;28;20136;-70
2021/12/30 00:46:11;;;;;;;40.28;8.15;;;8.30;99.90;;;;;;4993862;28;20103;-70
2021/12/30 00:48:39;;;;;;;40.50;7.35;;;8.30;99.90;;;;;;4993879;28;20034;-70
2021/12/30 00:51:07;;;;;;;45.53;7.22;;;8.30;99.90;;;;;;4991665;28;20050;-70
2021/12/30 00:53:33;;;;;;;40.92;6.65;;;8.30;99.90;;;;;;5009954;28;20042;-70
2021/12/30 00:55:59;;;;;;;36.92;6.68;;;8.20;99.90;;;;;;5010385;28;20402;-70
2021/12/30 00:58:26;;;;;;;41.28;7.82;;;8.20;99.90;;;;;;4977514;28;20095;-70
2021/12/30 01:00:53;;;;;;;33.22;7.75;;;8.10;99.90;;;;;;4993888;28;20502;-70
2021/12/30 01:03:19;;;;;;;31.67;6.53;;;8.10;99.90;;;;;;5009871;28;20132;-70
2021/12/30 01:05:45;;;;;;;31.38;6.10;;;8.10;99.90;;;;;;5026212;28;20128;-70
2021/12/30 01:08:11;;;;;;;34.10;8.07;;;8.00;99.90;;;;;;5010295;28;20179;-70
2021/12/30 01:10:38;;;;;;;45.75;8.38;;;8.00;99.90;;;;;;4993569;28;20530;-70
2021/12/30 01:13:07;;;;;;;40.97;6.50;;;8.00;99.90;;;;;;4993543;28;20041;-70
2021/12/30 01:15:47;;;;;;;36.63;7.63;;;8.00;99.90;;;;;;4977486;28;20038;-70
2021/12/30 01:19:15;;;;;;;32.37;6.53;;;7.90;99.90;;;;;;4992692;28;20119;-70
2021/12/30 01:21:02;;;;;;;31.70;7.15;;;7.90;99.90;;;;;;4994584;28;20281;-70
2021/12/30 01:23:29;;;;;;;23.83;5.93;;;8.00;99.90;;;;;;5009724;28;20052;-70
2021/12/30 01:25:57;;;;;;;43.03;7.68;;;8.00;99.90;;;;;;4993459;28;20389;-71
2021/12/30 01:28:25;;;;;;;35.30;7.35;;;8.10;99.90;;;;;;5026236;28;20430;-70
2021/12/30 01:30:51;;;;;;;29.63;7.43;;;8.10;99.90;;;;;;4993101;28;20038;-70
2021/12/30 01:33:17;;;;;;;38.53;7.10;;;8.10;99.90;;;;;;5003088;28;20138;-71
2021/12/30 01:35:43;;;;;;;30.48;7.63;;;8.20;99.90;;;;;;4977206;28;20052;-70
2021/12/30 01:38:12;;;;;;;35.45;6.63;;;8.10;99.90;;;;;;4977026;28;20046;-71
2021/12/30 01:40:40;;;;;;;36.88;7.35;;;8.10;99.90;;;;;;4977115;28;20034;-70
2021/12/30 01:43:07;;;;;;;35.63;7.50;;;8.20;99.90;;;;;;4976773;28;20501;-70
2021/12/30 01:45:34;;;;;;;32.70;6.95;;;8.20;99.90;;;;;;4993005;28;20084;-70
2021/12/30 01:48:00;;;;;;;37.88;8.23;;;8.20;99.90;;;;;;4992897;28;20498;-71
2021/12/30 01:50:26;;;;;;;34.13;7.03;;;8.30;99.90;;;;;;4974757;28;20124;-70
2021/12/30 01:52:53;;;;;;;36.30;8.60;;;8.30;99.90;;;;;;4993289;28;20402;-70
2021/12/30 01:55:20;;;;;;;42.08;9.13;;;8.30;99.90;;;;;;4976555;28;20052;-70
2021/12/30 01:57:47;;;;;;;35.55;7.65;;;8.30;99.90;;;;;;4992790;28;20046;-70
2021/12/30 02:00:22;;;;;;;40.60;8.23;;;8.30;99.90;;;;;;4992924;28;20046;-70
2021/12/30 02:02:48;;;;;;;53.13;10.18;;;8.30;99.90;;;;;;4992734;28;20094;-70
2021/12/30 02:05:14;;;;;;;48.78;10.63;;;8.20;99.90;;;;;;4976429;28;20050;-70
2021/12/30 02:07:40;;;;;;;55.17;11.35;;;8.30;99.90;;;;;;4992737;28;20049;-70
2021/12/30 02:10:07;;;;;;;50.42;11.25;;;8.20;99.90;;;;;;4976636;28;20042;-70
2021/12/30 02:12:37;;;;;;;51.60;11.77;;;8.20;99.90;;;;;;4992625;28;20077;-70
2021/12/30 02:15:07;;;;;;;51.45;11.45;;;8.20;99.90;;;;;;4976357;28;20048;-70
2021/12/30 02:17:33;;;;;;;47.10;11.00;;;8.20;99.90;;;;;;4992733;28;20034;-70
2021/12/30 02:20:01;;;;;;;57.47;12.35;;;8.20;99.90;;;;;;4973158;28;20078;-70
2021/12/30 02:22:28;;;;;;;59.22;13.63;;;8.20;99.90;;;;;;4969586;28;20055;-70
2021/12/30 02:24:56;;;;;;;47.83;13.10;;;8.20;99.90;;;;;;4953752;28;20054;-70
2021/12/30 02:27:22;;;;;;;55.67;12.93;;;8.20;99.90;;;;;;4953832;28;20088;-70
2021/12/30 02:29:47;;;;;;;55.33;14.43;;;8.20;99.90;;;;;;4970236;28;20491;-70
2021/12/30 02:32:13;;;;;;;59.03;13.90;;;8.30;99.90;;;;;;4973030;28;20085;-70
2021/12/30 02:34:39;;;;;;;53.80;14.32;;;8.30;99.90;;;;;;4956966;28;20053;-70
2021/12/30 02:37:06;;;;;;;47.83;12.65;;;8.40;99.90;;;;;;5005780;28;20038;-70
2021/12/30 02:39:33;;;;;;;48.05;14.57;;;8.40;99.90;;;;;;5005596;28;20542;-70
2021/12/30 02:41:59;;;;;;;66.78;14.73;;;8.50;99.90;;;;;;4972933;28;20511;-70
2021/12/30 02:44:26;;;;;;;56.78;14.20;;;8.60;99.90;;;;;;5005627;28;20047;-70
2021/12/30 02:46:53;;;;;;;58.90;17.35;;;8.60;99.90;;;;;;4972921;28;20043;-70
2021/12/30 02:49:19;;;;;;;57.22;15.00;;;8.70;99.90;;;;;;4973253;28;20065;-70
2021/12/30 02:51:45;;;;;;;52.58;13.95;;;8.70;99.90;;;;;;4970630;28;20460;-70
2021/12/30 02:54:11;;;;;;;56.45;13.68;;;8.80;99.90;;;;;;4957018;28;20074;-70
2021/12/30 02:56:37;;;;;;;56.45;13.68;;;8.90;99.90;;;;;;5005367;28;20483;-70
2021/12/30 02:59:03;;;;;;;63.78;15.07;;;8.90;99.90;;;;;;4957099;28;20035;-70
2021/12/30 03:01:31;;;;;;;55.65;13.32;;;9.00;99.90;;;;;;4989026;28;20055;-70
2021/12/30 03:04:00;;;;;;;52.40;13.98;;;9.00;99.90;;;;;;4956618;28;20042;-70
2021/12/30 03:06:27;;;;;;;47.53;12.20;;;9.10;99.90;;;;;;4988729;28;20043;-70
2021/12/30 03:08:53;;;;;;;48.75;12.18;;;9.20;99.90;;;;;;4972950;28;20043;-70
2021/12/30 03:11:21;;;;;;;56.47;12.25;;;9.20;99.90;;;;;;4956435;28;20051;-70
2021/12/30 03:13:48;;;;;;;50.42;11.05;;;9.30;99.90;;;;;;4972919;28;20047;-70
2021/12/30 03:16:20;;;;;;;54.35;11.10;;;9.30;99.90;;;;;;5005012;28;20043;-70
2021/12/30 03:18:49;;;;;;;47.58;10.32;;;9.40;99.90;;;;;;4972697;28;20062;-70
2021/12/30 03:21:18;;;;;;;52.60;12.10;;;9.40;99.90;;;;;;5003057;28;20371;-72
2021/12/30 03:23:44;;;;;;;60.30;11.20;;;9.50;99.90;;;;;;4972775;28;20046;-71
2021/12/30 03:26:10;;;;;;;55.67;11.52;;;9.50;99.90;;;;;;5004841;28;20047;-70
2021/12/30 03:28:40;;;;;;;46.75;11.07;;;9.60;99.90;;;;;;5004922;28;20047;-70
2021/12/30 03:31:06;;;;;;;42.45;9.65;;;9.60;99.90;;;;;;5005129;28;20564;-70
2021/12/30 03:33:32;;;;;;;54.00;11.45;;;9.70;99.90;;;;;;4972263;28;20494;-70
2021/12/30 03:36:00;;;;;;;50.25;9.98;;;9.70;99.90;;;;;;4972542;28;20480;-70
2021/12/30 03:38:37;;;;;;;54.28;12.18;;;9.70;99.90;;;;;;4956246;28;20100;-70
2021/12/30 03:41:05;;;;;;;49.00;10.18;;;9.80;99.90;;;;;;4972326;28;20038;-70
2021/12/30 03:43:31;;;;;;;51.25;10.98;;;9.80;99.90;;;;;;4956036;28;20398;-70
2021/12/30 03:45:57;;;;;;;45.90;9.93;;;9.90;99.90;;;;;;4972041;28;20058;-71
2021/12/30 03:48:31;;;;;;;58.05;11.57;;;9.90;99.90;;;;;;4972341;28;20042;-70
2021/12/30 03:50:57;;;;;;;50.03;11.20;;;9.90;99.90;;;;;;4970022;28;20089;-71
2021/12/30 03:53:22;;;;;;;49.92;11.80;;;9.90;99.90;;;;;;4972033;28;20066;-70
2021/12/30 03:55:51;;;;;;;57.75;11.60;;;9.90;99.90;;;;;;4972179;28;20053;-71
2021/12/30 03:58:18;;;;;;;53.58;12.38;;;9.90;99.90;;;;;;4972015;28;20050;-71
2021/12/30 04:00:44;;;;;;;56.63;12.07;;;10.00;99.90;;;;;;4971791;28;20047;-71
2021/12/30 04:03:10;;;;;;;55.63;13.23;;;10.00;99.90;;;;;;4971932;28;20042;-71
2021/12/30 04:05:36;;;;;;;65.95;14.25;;;10.00;99.90;;;;;;4972166;28;20034;-70
2021/12/30 04:08:02;;;;;;;61.88;14.40;;;10.10;99.90;;;;;;4972103;28;20488;-70
2021/12/30 04:10:28;;;;;;;63.45;14.18;;;10.20;99.90;;;;;;4972050;28;20369;-71
2021/12/30 04:12:54;;;;;;;61.90;15.38;;;10.20;99.90;;;;;;4955617;28;20101;-70
2021/12/30 04:15:20;;;;;;;60.92;14.50;;;10.30;99.90;;;;;;4971538;28;20043;-70
2021/12/30 04:17:47;;;;;;;58.25;14.82;;;10.30;99.90;;;;;;4971655;28;20050;-70
2021/12/30 04:20:15;;;;;;;65.20;15.25;;;10.40;99.90;;;;;;4953294;28;20539;-70
2021/12/30 04:22:42;;;;;;;62.65;15.15;;;10.40;99.90;;;;;;4971487;28;20057;-70
2021/12/30 04:25:10;;;;;;;62.40;15.88;;;10.40;99.90;;;;;;4971588;28;20172;-70
2021/12/30 04:27:37;;;;;;;60.97;16.92;;;10.50;99.90;;;;;;4971337;28;20152;-70
2021/12/30 04:30:05;;;;;;;47.05;15.07;;;10.50;99.90;;;;;;4971440;28;20043;-70
2021/12/30 04:32:30;;;;;;;45.17;14.63;;;10.50;99.90;;;;;;4971205;28;20502;-70
2021/12/30 04:34:56;;;;;;;60.45;15.20;;;10.50;99.90;;;;;;4955321;28;20050;-70
2021/12/30 04:37:22;;;;;;;52.60;16.02;;;10.50;99.90;;;;;;4971253;28;20042;-70
2021/12/30 04:39:48;;;;;;;46.67;14.45;;;10.60;99.90;;;;;;4971587;28;20050;-70
2021/12/30 04:42:14;;;;;;;55.30;17.33;;;10.60;99.90;;;;;;5003774;28;20491;-70
2021/12/30 04:44:39;;;;;;;56.10;17.58;;;10.60;99.90;;;;;;4971241;28;20129;-70
2021/12/30 04:47:06;;;;;;;51.10;17.60;;;10.60;99.90;;;;;;4987785;28;20054;-70
2021/12/30 04:49:32;;;;;;;73.18;19.00;;;10.70;99.90;;;;;;4955141;28;20046;-70
2021/12/30 04:51:59;;;;;;;66.70;20.00;;;10.70;99.90;;;;;;4952750;28;20134;-70
2021/12/30 04:54:25;;;;;;;65.32;20.13;;;10.70;99.90;;;;;;4954067;28;20042;-70
2021/12/30 04:56:51;;;;;;;64.50;20.77;;;10.70;99.90;;;;;;4971328;28;20101;-70
2021/12/30 04:59:17;;;;;;;72.40;21.13;;;10.80;99.90;;;;;;4971050;28;20042;-69
2021/12/30 05:01:43;;;;;;;79.38;22.42;;;10.80;99.90;;;;;;4954870;28;20104;-70
2021/12/30 05:04:09;;;;;;;75.75;22.02;;;10.80;99.90;;;;;;4971248;28;20042;-70
2021/12/30 05:06:36;;;;;;;84.85;23.02;;;10.80;99.90;;;;;;4970866;28;20495;-69
2021/12/30 05:09:03;;;;;;;83.88;22.92;;;10.80;99.90;;;;;;4971223;28;20489;-69
2021/12/30 05:11:29;;;;;;;76.00;23.65;;;10.90;99.90;;;;;;4970832;28;20054;-69
2021/12/30 05:13:55;;;;;;;78.22;23.90;;;10.90;99.90;;;;;;4954760;28;20047;-69
2021/12/30 05:16:21;;;;;;;75.50;21.35;;;10.90;99.90;;;;;;4970796;28;20057;-69
2021/12/30 05:18:48;;;;;;;72.82;21.90;;;10.90;99.90;;;;;;4970757;28;20177;-70
2021/12/30 05:21:14;;;;;;;77.90;21.90;;;10.90;99.90;;;;;;4968772;28;20166;-70
2021/12/30 05:23:40;;;;;;;77.40;24.52;;;10.90;99.90;;;;;;4970555;28;20129;-69
2021/12/30 05:26:06;;;;;;;76.90;20.13;;;11.00;99.90;;;;;;4970561;28;20180;-69
2021/12/30 05:28:32;;;;;;;67.68;22.05;;;11.00;99.90;;;;;;4970336;28;20046;-69
2021/12/30 05:30:58;;;;;;;73.75;21.50;;;11.00;99.90;;;;;;4986994;28;20054;-70
2021/12/30 05:33:24;;;;;;;68.28;20.92;;;11.00;99.90;;;;;;4960112;28;20495;-69
2021/12/30 05:35:50;;;;;;;80.07;21.58;;;11.00;99.90;;;;;;4951558;28;20101;-69
2021/12/30 05:38:17;;;;;;;84.68;22.73;;;11.00;99.90;;;;;;4951190;28;20051;-69
2021/12/30 05:40:43;;;;;;;89.25;21.98;;;11.00;99.90;;;;;;4935187;29;20042;-69
2021/12/30 05:43:09;;;;;;;84.93;21.40;;;11.00;99.90;;;;;;4951220;28;20043;-69
2021/12/30 05:45:35;;;;;;;86.10;22.83;;;11.00;99.90;;;;;;4935124;29;20043;-69
2021/12/30 05:48:01;;;;;;;93.72;23.02;;;11.10;99.90;;;;;;4934940;29;20764;-69
2021/12/30 05:50:30;;;;;;;99.20;23.20;;;11.10;99.90;;;;;;4949175;28;20075;-69
2021/12/30 05:52:56;;;;;;;127.10;28.33;;;11.10;99.90;;;;;;4934881;29;20479;-69
2021/12/30 05:55:23;;;;;;;133.73;29.08;;;11.20;99.90;;;;;;4950958;29;20286;-69
2021/12/30 05:57:54;;;;;;;156.50;30.42;;;11.10;99.90;;;;;;4950829;29;20050;-69
2021/12/30 06:00:21;;;;;;;106.75;27.17;;;11.10;99.90;;;;;;4950893;29;20086;-69
2021/12/30 06:02:47;;;;;;;105.70;26.33;;;11.10;99.90;;;;;;4950822;29;20097;-69
2021/12/30 06:05:13;;;;;;;92.95;24.90;;;11.10;99.90;;;;;;4950743;28;20598;-70
2021/12/30 06:07:40;;;;;;;81.45;25.20;;;11.20;99.90;;;;;;4934832;29;20047;-69
2021/12/30 06:10:06;;;;;;;72.45;23.95;;;11.20;99.90;;;;;;4950650;28;20043;-70
2021/12/30 06:12:32;;;;;;;72.82;21.60;;;11.20;99.90;;;;;;4950591;28;20057;-69
2021/12/30 06:14:58;;;;;;;69.20;18.92;;;11.20;99.90;;;;;;4934842;29;20035;-69
2021/12/30 06:17:24;;;;;;;59.85;20.20;;;11.20;99.90;;;;;;4950572;28;20055;-70
2021/12/30 06:19:50;;;;;;;58.38;19.70;;;11.20;99.90;;;;;;4963887;28;20391;-70
2021/12/30 06:22:16;;;;;;;55.60;19.85;;;11.20;99.90;;;;;;4967664;28;20055;-70
2021/12/30 06:24:42;;;;;;;54.42;18.42;;;11.30;99.90;;;;;;5002350;28;20054;-70
2021/12/30 06:27:09;;;;;;;48.92;17.63;;;11.30;99.90;;;;;;5002543;28;20046;-70
2021/12/30 06:29:36;;;;;;;57.10;19.02;;;11.30;99.90;;;;;;4985961;28;20084;-70
2021/12/30 06:32:04;;;;;;;41.70;16.70;;;11.40;99.90;;;;;;5002053;28;20104;-70
2021/12/30 06:34:30;;;;;;;42.38;15.82;;;11.40;99.90;;;;;;5021748;28;20084;-70
2021/12/30 06:36:56;;;;;;;41.97;15.90;;;11.40;99.90;;;;;;5021812;28;20052;-70
2021/12/30 06:39:22;;;;;;;37.95;15.50;;;11.40;99.90;;;;;;4989033;28;20034;-71
2021/12/30 06:41:48;;;;;;;33.22;15.48;;;11.40;99.90;;;;;;4989007;28;20054;-70
2021/12/30 06:44:14;;;;;;;34.67;14.80;;;11.40;99.90;;;;;;4989009;28;20061;-70
2021/12/30 06:46:46;;;;;;;34.40;13.68;;;11.40;99.90;;;;;;4989036;28;20054;-70
2021/12/30 06:49:12;;;;;;;32.60;12.63;;;11.40;99.90;;;;;;4972867;28;20095;-70
2021/12/30 06:51:37;;;;;;;33.42;11.85;;;11.40;99.90;;;;;;4986672;28;20046;-70
2021/12/30 06:54:04;;;;;;;24.88;10.73;;;11.40;99.90;;;;;;4988907;28;20039;-71
2021/12/30 06:56:31;;;;;;;19.10;8.52;;;11.40;99.90;;;;;;4989202;28;20121;-71
2021/12/30 06:58:57;;;;;;;25.20;9.00;;;11.40;99.90;;;;;;5005343;28;20030;-70
2021/12/30 07:01:23;;;;;;;21.27;8.50;;;11.40;99.90;;;;;;4972686;28;20054;-71
2021/12/30 07:03:49;;;;;;;17.23;7.22;;;11.50;99.90;;;;;;4988696;28;20103;-71
2021/12/30 07:06:15;;;;;;;19.50;7.55;;;11.40;99.90;;;;;;4988771;28;20054;-71
2021/12/30 07:08:41;;;;;;;13.52;7.07;;;11.50;99.90;;;;;;4988937;28;20046;-71
2021/12/30 07:11:07;;;;;;;17.10;6.75;;;11.50;99.90;;;;;;5005083;28;20038;-71
2021/12/30 07:13:33;;;;;;;14.07;6.00;;;11.40;99.90;;;;;;4988712;28;20095;-71
2021/12/30 07:15:59;;;;;;;13.45;5.85;;;11.50;99.90;;;;;;4988713;28;20046;-71
2021/12/30 07:18:25;;;;;;;14.73;6.28;;;11.50;99.90;;;;;;5025809;28;20046;-70
2021/12/30 07:20:51;;;;;;;14.95;5.85;;;11.50;99.90;;;;;;4993269;28;20121;-70
2021/12/30 07:23:17;;;;;;;14.07;5.90;;;11.50;99.90;;;;;;5027817;28;20090;-70
2021/12/30 07:25:43;;;;;;;15.35;7.00;;;11.50;99.90;;;;;;5011610;28;20042;-70
2021/12/30 07:28:09;;;;;;;20.65;8.48;;;11.50;99.90;;;;;;4995057;28;20069;-70
2021/12/30 07:30:34;;;;;;;21.33;8.60;;;11.50;99.90;;;;;;5011330;28;20042;-70
2021/12/30 07:33:05;;;;;;;20.00;7.93;;;11.50;99.90;;;;;;4987315;28;20045;-71
2021/12/30 07:35:32;;;;;;;21.23;8.63;;;11.50;99.90;;;;;;4975755;28;20034;-70
2021/12/30 07:37:58;;;;;;;20.42;8.48;;;11.50;99.90;;;;;;4975507;28;20044;-70
2021/12/30 07:40:24;;;;;;;26.13;10.02;;;11.50;99.90;;;;;;4975509;28;20034;-70
2021/12/30 07:42:50;;;;;;;22.38;9.45;;;11.60;99.90;;;;;;4975592;28;20082;-72
2021/12/30 07:45:16;;;;;;;21.35;8.90;;;11.50;99.90;;;;;;5008094;28;20125;-71
2021/12/30 07:47:42;;;;;;;19.90;8.05;;;11.60;99.90;;;;;;4975310;28;20427;-70
2021/12/30 07:50:09;;;;;;;21.98;8.38;;;11.60;99.90;;;;;;5006245;28;20074;-71
2021/12/30 07:52:36;;;;;;;15.57;6.82;;;11.60;99.90;;;;;;4991379;28;20061;-71
2021/12/30 07:55:05;;;;;;;15.20;6.97;;;11.50;99.90;;;;;;5007713;28;20085;-71
2021/12/30 07:57:31;;;;;;;16.55;6.85;;;11.60;99.90;;;;;;4975301;28;20125;-71
2021/12/30 07:59:57;;;;;;;14.25;5.65;;;11.60;99.90;;;;;;4975318;28;20129;-71
2021/12/30 08:02:23;;;;;;;13.98;5.82;;;11.60;99.90;;;;;;4991677;28;20475;-71
2021/12/30 08:04:49;;;;;;;15.45;6.18;;;11.60;99.90;;;;;;4958952;28;20514;-71
2021/12/30 08:07:20;;;;;;;13.02;5.75;;;11.60;99.90;;;;;;4991334;28;20042;-71
2021/12/30 08:09:45;;;;;;;21.33;6.88;;;11.60;99.90;;;;;;4991421;28;20034;-71
2021/12/30 08:12:11;;;;;;;16.67;5.97;;;11.60;99.90;;;;;;4975103;28;20517;-71
2021/12/30 08:14:37;;;;;;;17.80;6.28;;;11.60;99.90;;;;;;4974871;28;20160;-71
2021/12/30 08:17:03;;;;;;;17.48;6.03;;;11.60;99.90;;;;;;4975240;28;20091;-71
2021/12/30 08:19:29;;;;;;;21.42;5.70;;;11.60;99.90;;;;;;4971437;28;20058;-71
2021/12/30 08:21:55;;;;;;;21.10;5.63;;;11.60;99.90;;;;;;5002062;28;20047;-71
2021/12/30 08:24:21;;;;;;;15.27;4.45;;;11.60;99.90;;;;;;4971567;28;20051;-71
2021/12/30 08:26:48;;;;;;;12.57;5.32;;;11.60;99.90;;;;;;4987809;28;20043;-71
2021/12/30 08:29:15;;;;;;;20.52;5.53;;;11.70;99.90;;;;;;4971255;28;20096;-71
2021/12/30 08:31:41;;;;;;;14.90;4.38;;;11.60;99.90;;;;;;5004091;28;20054;-71
2021/12/30 08:34:07;;;;;;;16.92;5.07;;;11.70;99.90;;;;;;5020243;28;20042;-71
2021/12/30 08:36:34;;;;;;;14.82;4.50;;;11.70;99.90;;;;;;4990862;28;20035;-71
2021/12/30 08:39:00;;;;;;;20.55;4.63;;;11.70;99.90;;;;;;4990757;28;20050;-71
2021/12/30 08:41:26;;;;;;;15.05;4.32;;;11.70;99.90;;;;;;4991060;28;20115;-71
2021/12/30 08:43:52;;;;;;;14.32;4.38;;;11.80;99.90;;;;;;4990745;28;20046;-70
2021/12/30 08:46:18;;;;;;;11.20;3.90;;;11.80;99.90;;;;;;5007157;28;20054;-71
2021/12/30 08:48:44;;;;;;;14.32;4.40;;;11.80;99.90;;;;;;4990909;28;20151;-71
2021/12/30 08:51:10;;;;;;;17.02;4.50;;;11.80;99.90;;;;;;4988421;28;20042;-71
2021/12/30 08:53:40;;;;;;;10.30;3.90;;;11.80;99.90;;;;;;4990634;28;20043;-71
2021/12/30 08:56:11;;;;;;;;;;;11.90;99.90;;;;;;4974784;28;20099;-70
2021/12/30 08:58:37;;;;;;;12.15;4.57;;;11.90;99.90;;;;;;4990746;28;19929;-72
2021/12/30 09:01:03;;;;;;;14.32;4.85;;;11.90;99.90;;;;;;4990629;28;20364;-71
2021/12/30 09:03:29;;;;;;;13.75;4.30;;;12.00;99.90;;;;;;5023512;28;20054;-72
2021/12/30 09:05:54;;;;;;;11.38;3.72;;;12.00;99.90;;;;;;4990445;28;20460;-71
2021/12/30 09:08:20;;;;;;;10.95;4.10;;;12.00;99.90;;;;;;4990390;28;20065;-71
2021/12/30 09:10:49;;;;;;;12.23;4.70;;;12.00;99.90;;;;;;5006380;28;20065;-71
2021/12/30 09:13:15;;;;;;;16.23;4.63;;;12.00;99.90;;;;;;4990614;28;20057;-73
2021/12/30 09:15:42;;;;;;;13.35;5.00;;;12.00;99.90;;;;;;4990111;28;20039;-71
2021/12/30 09:18:08;;;;;;;8.27;3.78;;;12.00;99.90;;;;;;4990299;28;20102;-71
2021/12/30 09:20:35;;;;;;;17.38;5.25;;;12.00;99.90;;;;;;4968623;28;20055;-71
2021/12/30 09:23:03;;;;;;;11.05;4.40;;;12.00;99.90;;;;;;5003500;28;20508;-71
2021/12/30 09:25:30;;;;;;;13.95;5.15;;;12.00;99.90;;;;;;4970693;28;20051;-71
2021/12/30 09:27:56;;;;;;;19.67;4.95;;;12.00;99.90;;;;;;4986952;28;20042;-71
2021/12/30 09:30:25;;;;;;;15.38;4.75;;;12.00;99.90;;;;;;5002879;28;20499;-72
2021/12/30 09:32:53;;;;;;;16.85;4.90;;;12.00;99.90;;;;;;4996938;28;20040;-71
2021/12/30 09:35:19;;;;;;;17.35;5.57;;;11.90;99.90;;;;;;4967315;28;20050;-71
2021/12/30 09:37:46;;;;;;;10.98;3.75;;;11.90;99.90;;;;;;4951559;28;20054;-71
2021/12/30 09:40:13;;;;;;;12.82;4.53;;;11.90;99.90;;;;;;4966751;28;20388;-71
2021/12/30 09:42:46;;;;;;;16.70;4.03;;;11.90;99.90;;;;;;4950247;28;20046;-71
2021/12/30 09:45:12;;;;;;;17.63;3.90;;;11.90;99.90;;;;;;4967756;28;20058;-73
2021/12/30 09:47:51;;;;;;;18.80;4.18;;;11.90;99.90;;;;;;4953406;28;20072;-72
2021/12/30 09:50:25;;;;;;;16.52;4.47;;;11.80;99.90;;;;;;4967118;28;20138;-69
2021/12/30 09:52:51;;;;;;;16.80;4.07;;;11.80;99.90;;;;;;4968958;28;20045;-69
2021/12/30 09:55:17;;;;;;;12.75;4.20;;;11.80;99.90;;;;;;4969191;28;20121;-69
2021/12/30 09:57:43;;;;;;;17.95;4.20;;;11.80;99.90;;;;;;4953321;28;20092;-70
2021/12/30 10:00:12;;;;;;;18.42;4.07;;;11.80;99.90;;;;;;4969197;28;20046;-69
2021/12/30 10:02:41;;;;;;;14.60;4.18;;;11.80;99.90;;;;;;4969390;28;20074;-68
2021/12/30 10:05:10;;;;;;;16.02;4.20;;;11.70;99.90;;;;;;4953334;28;20467;-68
2021/12/30 10:07:39;;;;;;;21.35;5.03;;;11.70;99.90;;;;;;4969241;28;20055;-69
2021/12/30 10:10:30;;;;;;;18.67;5.00;;;11.70;99.90;;;;;;4969464;28;20058;-69
2021/12/30 10:12:57;;;;;;;27.52;5.45;;;11.70;99.90;;;;;;4969998;28;20065;-68
2021/12/30 10:15:26;;;;;;;20.73;5.68;;;11.70;99.90;;;;;;4969844;28;20039;-70
2021/12/30 10:17:58;;;;;;;19.77;5.13;;;11.80;99.90;;;;;;4969966;28;20148;-69
2021/12/30 10:20:27;;;;;;;24.88;4.80;;;11.80;99.90;;;;;;4984366;28;20302;-69
2021/12/30 10:22:55;;;;;;;23.75;5.35;;;11.80;99.90;;;;;;4988507;28;20051;-69
2021/12/30 10:25:33;;;;;;;20.83;5.38;;;11.80;99.90;;;;;;4988578;28;20092;-68
2021/12/30 10:28:36;;;;;;;22.73;6.47;;;11.80;99.90;;;;;;4989028;28;20672;-68
2021/12/30 10:31:11;;;;;;;23.00;4.97;;;11.80;99.90;;;;;;4988928;28;20054;-68
2021/12/30 10:33:46;;;;;;;24.52;6.10;;;11.80;99.90;;;;;;4960022;28;20039;-68
2021/12/30 10:36:27;;;;;;;27.83;6.20;;;11.80;99.90;;;;;;4968792;28;20043;-69
2021/12/30 10:38:55;;;;;;;27.23;7.57;;;11.80;99.90;;;;;;4983304;28;20039;-68
2021/12/30 10:41:24;;;;;;;29.50;6.55;;;11.80;99.90;;;;;;4972648;28;20050;-68
2021/12/30 10:43:57;;;;;;;29.95;5.78;;;11.80;99.90;;;;;;4990010;28;20402;-68
2021/12/30 10:46:25;;;;;;;36.42;7.60;;;11.70;99.90;;;;;;4988214;28;20496;-68
2021/12/30 10:48:54;;;;;;;29.15;7.18;;;11.80;99.90;;;;;;4988425;28;20054;-68
2021/12/30 10:51:21;;;;;;;27.42;6.68;;;11.80;99.90;;;;;;4985495;28;20042;-68
2021/12/30 10:53:49;;;;;;;32.83;7.22;;;11.70;99.90;;;;;;4991301;28;20486;-69
2021/12/30 10:56:23;;;;;;;31.35;6.93;;;11.80;99.90;;;;;;4991325;28;20049;-68
2021/12/30 10:58:50;;;;;;;38.45;8.15;;;11.80;99.90;;;;;;4991401;28;20042;-68
2021/12/30 11:01:19;;;;;;;33.42;8.45;;;11.80;99.90;;;;;;4975050;28;20085;-68
2021/12/30 11:03:56;;;;;;;37.53;6.75;;;11.80;99.90;;;;;;4991646;28;20073;-68
2021/12/30 11:06:23;;;;;;;35.42;6.85;;;11.80;99.90;;;;;;4991167;28;20524;-68
2021/12/30 11:09:02;;;;;;;33.47;7.10;;;11.90;99.90;;;;;;4991527;28;20394;-69
2021/12/30 11:11:29;;;;;;;28.35;6.38;;;11.90;99.90;;;;;;4991427;28;20081;-68
2021/12/30 11:13:59;;;;;;;31.17;7.30;;;11.90;99.90;;;;;;4991397;28;20390;-69
2021/12/30 11:16:25;;;;;;;39.60;7.97;;;11.90;99.90;;;;;;4974911;28;20098;-69
2021/12/30 11:18:50;;;;;;;24.48;5.78;;;11.90;99.90;;;;;;4991055;28;20133;-69
2021/12/30 11:21:36;;;;;;;29.80;6.10;;;11.90;99.90;;;;;;4988541;28;20524;-69
2021/12/30 11:24:04;;;;;;;33.78;8.02;;;11.90;99.90;;;;;;4975128;28;20050;-69
2021/12/30 11:26:32;;;;;;;37.60;7.07;;;11.90;99.90;;;;;;4990870;28;20054;-69
2021/12/30 11:28:58;;;;;;;33.90;7.38;;;11.90;99.90;;;;;;4991238;28;20065;-70
2021/12/30 11:31:24;;;;;;;30.02;6.75;;;11.90;99.90;;;;;;4990847;28;20054;-68
2021/12/30 11:33:49;;;;;;;37.13;7.38;;;11.90;99.90;;;;;;4976872;28;20042;-69
2021/12/30 11:36:18;;;;;;;29.02;5.45;;;11.90;99.90;;;;;;5003851;28;20046;-69
2021/12/30 11:38:44;;;;;;;29.52;6.30;;;12.00;99.90;;;;;;5007291;28;20125;-68
2021/12/30 11:41:23;;;;;;;31.40;6.65;;;12.00;99.90;;;;;;4990708;28;20511;-69
2021/12/30 11:43:50;;;;;;;25.33;5.32;;;12.00;99.90;;;;;;4974759;28;20276;-68
2021/12/30 11:46:42;;;;;;;30.15;7.13;;;12.00;99.90;;;;;;4974490;28;20199;-68
2021/12/30 11:49:10;;;;;;;24.98;6.97;;;12.10;99.90;;;;;;4990665;28;20129;-68
2021/12/30 11:51:45;;;;;;;29.98;6.45;;;12.10;99.90;;;;;;4988245;28;20042;-68
2021/12/30 11:54:40;;;;;;;27.20;6.25;;;12.10;99.90;;;;;;4990765;28;20056;-68
2021/12/30 11:57:25;;;;;;;27.02;5.28;;;12.20;99.90;;;;;;4990731;28;20038;-68
2021/12/30 11:59:53;;;;;;;25.80;5.60;;;12.20;99.90;;;;;;4990557;28;20050;-68
2021/12/30 12:02:26;;;;;;;25.75;5.90;;;12.20;99.90;;;;;;4990027;28;20042;-69
2021/12/30 12:04:52;;;;;;;19.52;5.30;;;12.30;99.90;;;;;;4990696;28;20194;-69
2021/12/30 12:07:18;;;;;;;24.95;6.18;;;12.30;99.90;;;;;;4990237;28;20161;-69
2021/12/30 12:09:44;;;;;;;30.67;5.93;;;12.30;99.90;;;;;;4990550;28;20053;-68
2021/12/30 12:12:26;;;;;;;25.30;6.70;;;12.30;99.90;;;;;;4990100;28;20046;-68
2021/12/30 12:14:52;;;;;;;28.42;6.10;;;12.30;99.90;;;;;;4990505;28;20048;-68
2021/12/30 12:17:35;;;;;;;37.33;7.97;;;12.30;99.90;;;;;;4973762;28;20038;-68
2021/12/30 12:20:22;;;;;;;21.02;5.00;;;12.30;99.90;;;;;;4990029;28;20593;-69
2021/12/30 12:22:48;;;;;;;25.85;5.40;;;12.30;99.90;;;;;;4990006;28;20054;-68
2021/12/30 12:25:22;;;;;;;26.30;5.93;;;12.30;99.90;;;;;;4973970;28;20046;-68
2021/12/30 12:27:51;;;;;;;27.67;5.57;;;12.30;99.90;;;;;;4990297;28;20046;-68
2021/12/30 12:30:25;;;;;;;20.60;5.43;;;12.30;99.90;;;;;;4990009;28;20042;-69
2021/12/30 12:32:51;;;;;;;26.90;5.80;;;12.30;99.90;;;;;;4991819;28;20507;-69
2021/12/30 12:35:17;;;;;;;26.83;5.47;;;12.30;99.90;;;;;;4970599;28;20041;-69
2021/12/30 12:37:44;;;;;;;27.52;6.65;;;12.30;99.90;;;;;;4975694;28;20072;-68
2021/12/30 12:40:35;;;;;;;25.77;6.53;;;12.30;99.90;;;;;;4990176;28;20081;-68